Time;durP1;ratioP1;P1;durP2;ratioP2;P2;SDS_P1;SDS_P2;PMS_P1;PMS_P2;Temp;Humidity;BMP_temperature;BMP_pressure;BME280_temperature;BME280_humidity;BME280_pressure;Samples;Min_cycle;Max_cycle;Signal;HPM_P1;HPM_P2
2021/10/07 00:01:45;;;;;;;;;3.25;2.50;;;;;13.96;87.68;101897.94;5018283;28;46020;-84
2021/10/07 00:04:10;;;;;;;;;3.75;2.75;;;;;13.85;87.48;101884.63;5018215;28;47744;-84
2021/10/07 00:06:35;;;;;;;;;3.25;2.00;;;;;13.80;87.57;101884.06;5036095;28;45669;-83
2021/10/07 00:09:04;;;;;;;;;4.00;3.00;;;;;13.90;87.75;101905.41;5017400;28;45513;-84
2021/10/07 00:11:30;;;;;;;;;3.00;2.25;;;;;13.86;87.74;101896.84;5035767;28;45663;-84
2021/10/07 00:13:55;;;;;;;;;2.00;2.00;;;;;13.63;87.65;101866.72;5017458;28;47594;-85
2021/10/07 00:16:22;;;;;;;;;3.25;2.00;;;;;13.53;87.59;101857.72;5035519;28;45706;-85
2021/10/07 00:18:50;;;;;;;;;4.00;3.50;;;;;13.57;87.42;101858.34;5017448;28;45960;-85
2021/10/07 00:24:37;;;;;;;;;2.00;1.25;;;;;13.69;87.36;101895.28;5035834;28;45690;-85
2021/10/07 00:27:03;;;;;;;;;2.50;1.00;;;;;13.60;87.24;101881.88;5035672;28;45698;-86
2021/10/07 00:32:20;;;;;;;;;2.25;2.00;;;;;13.50;87.78;101875.47;5035810;28;45650;-85
2021/10/07 00:35:15;;;;;;;;;3.00;2.00;;;;;13.38;87.24;101859.53;5017334;28;47405;-85
2021/10/07 00:40:09;;;;;;;;;2.75;2.00;;;;;13.66;87.61;101916.53;5035424;28;45641;-86
2021/10/07 00:42:37;;;;;;;;;3.00;2.00;;;;;13.65;87.59;101922.78;5017614;28;45533;-86
2021/10/07 00:45:04;;;;;;;;;4.00;2.00;;;;;13.56;87.66;101911.94;5017221;28;47798;-85
2021/10/07 00:47:29;;;;;;;;;4.00;2.00;;;;;13.65;87.86;101921.94;5035755;28;46707;-85
2021/10/07 00:49:55;;;;;;;;;4.50;2.00;;;;;13.60;87.79;101926.63;5035201;28;45718;-86
2021/10/07 00:52:21;;;;;;;;;2.00;2.00;;;;;13.19;87.55;101866.00;5017906;28;45587;-86
2021/10/07 00:54:52;;;;;;;;;2.50;2.25;;;;;13.54;87.32;101929.66;5017533;28;46550;-86
2021/10/07 00:57:20;;;;;;;;;1.50;1.50;;;;;13.16;87.85;101864.44;5017712;28;47380;-86
2021/10/07 00:59:46;;;;;;;;;5.00;2.00;;;;;13.05;87.75;101848.44;5018990;28;45688;-85
2021/10/07 01:02:12;;;;;;;;;2.75;2.75;;;;;13.41;87.61;101914.59;5037671;28;45888;-86
2021/10/07 01:04:38;;;;;;;;;2.00;2.00;;;;;13.32;87.94;101890.66;5019511;28;47686;-86
2021/10/07 01:07:06;;;;;;;;;3.25;3.00;;;;;13.28;87.82;101889.97;5019266;28;47459;-86
2021/10/07 01:09:32;;;;;;;;;3.00;3.00;;;;;13.33;87.59;101894.97;5036663;28;45700;-86
2021/10/07 01:12:00;;;;;;;;;2.00;2.00;;;;;13.17;87.97;101871.34;5021340;28;45509;-86
2021/10/07 01:14:35;;;;;;;;;3.00;2.00;;;;;13.32;87.59;101898.53;5040460;28;45737;-86
2021/10/07 01:17:01;;;;;;;;;3.25;2.00;;;;;13.26;87.87;101893.66;5025120;28;47402;-88
2021/10/07 01:19:27;;;;;;;;;3.00;2.25;;;;;13.10;87.86;101861.28;5042672;28;45711;-85
2021/10/07 01:21:53;;;;;;;;;3.00;2.25;;;;;13.24;87.95;101877.94;5043019;28;45699;-86
2021/10/07 01:24:19;;;;;;;;;4.75;3.00;;;;;13.21;87.86;101878.16;5024962;28;47265;-86
2021/10/07 01:26:44;;;;;;;;;2.75;2.00;;;;;13.25;88.07;101895.44;5024253;28;46985;-86
2021/10/07 01:29:10;;;;;;;;;1.00;0.75;;;;;13.18;88.04;101880.09;5042782;28;45627;-85
2021/10/07 01:31:35;;;;;;;;;3.75;2.25;;;;;13.17;87.65;101879.25;5020538;28;45881;-86
2021/10/07 01:34:01;;;;;;;;;3.50;3.00;;;;;13.20;87.74;101897.50;5016710;28;47709;-86
2021/10/07 01:39:48;;;;;;;;;2.75;2.00;;;;;13.36;88.00;101924.56;5034462;28;45539;-86
2021/10/07 01:42:13;;;;;;;;;4.00;3.00;;;;;13.20;87.56;101886.97;5035734;28;45709;-86
2021/10/07 01:44:39;;;;;;;;;2.00;2.00;;;;;13.39;88.17;101913.00;5017015;28;46484;-86
2021/10/07 01:47:04;;;;;;;;;2.00;2.00;;;;;13.39;88.16;101919.09;5035086;28;45615;-85
2021/10/07 01:49:30;;;;;;;;;4.00;3.00;;;;;13.40;87.90;101919.97;5016753;28;45617;-85
2021/10/07 01:51:55;;;;;;;;;5.00;3.00;;;;;13.28;87.80;101887.34;5017215;28;45572;-85
2021/10/07 01:54:21;;;;;;;;;5.50;4.00;;;;;13.12;87.97;101868.16;5017637;28;47344;-86
2021/10/07 01:56:46;;;;;;;;;2.25;2.25;;;;;13.30;88.20;101900.41;5029437;28;48025;-85
2021/10/07 01:59:12;;;;;;;;;2.50;2.00;;;;;13.41;87.86;101909.34;5052002;28;45754;-85
2021/10/07 02:01:37;;;;;;;;;3.00;3.00;;;;;13.30;87.70;101888.09;5033497;28;45487;-84
2021/10/07 02:04:04;;;;;;;;;1.75;1.50;;;;;13.24;87.72;101877.09;5041405;28;45462;-86
2021/10/07 02:10:12;;;;;;;;;2.75;1.75;;;;;13.20;87.85;101875.59;5036203;28;45811;-84
2021/10/07 02:12:38;;;;;;;;;3.00;2.50;;;;;13.22;87.93;101879.00;5037986;28;45516;-86
2021/10/07 02:15:04;;;;;;;;;2.00;2.00;;;;;13.23;88.17;101875.41;5038309;28;45534;-85
2021/10/07 02:17:29;;;;;;;;;3.25;2.00;;;;;13.11;87.91;101852.47;5038074;28;46076;-86
2021/10/07 02:19:55;;;;;;;;;2.50;2.00;;;;;13.10;87.95;101854.25;5019931;28;46048;-87
2021/10/07 02:22:20;;;;;;;;;4.25;3.00;;;;;13.14;88.07;101865.44;5038127;28;45569;-87
2021/10/07 02:24:46;;;;;;;;;3.00;2.00;;;;;13.36;88.16;101897.41;5019981;28;47640;-87
2021/10/07 02:27:11;;;;;;;;;3.00;2.25;;;;;13.08;88.04;101865.78;5019663;28;46130;-87
2021/10/07 02:29:36;;;;;;;;;3.75;3.00;;;;;13.16;87.78;101874.09;5019532;28;46048;-87
2021/10/07 02:32:02;;;;;;;;;2.25;2.00;;;;;12.83;87.61;101816.47;5038590;28;45740;-86
2021/10/07 02:34:29;;;;;;;;;3.50;2.75;;;;;13.19;88.41;101885.28;5021656;28;47506;-87
2021/10/07 02:40:16;;;;;;;;;2.25;2.00;;;;;13.16;88.10;101877.59;5037897;28;45703;-86
2021/10/07 02:42:44;;;;;;;;;2.75;2.25;;;;;13.22;88.08;101889.53;5023024;28;45949;-87
2021/10/07 02:45:11;;;;;;;;;2.00;1.00;;;;;13.01;87.92;101860.06;5032256;28;48744;-84
2021/10/07 02:47:38;;;;;;;;;2.00;2.00;;;;;13.06;87.96;101880.84;5048506;28;46693;-86
2021/10/07 02:50:06;;;;;;;;;4.75;2.75;;;;;12.81;88.08;101836.75;5030607;28;45626;-86
2021/10/07 02:52:31;;;;;;;;;3.50;2.75;;;;;12.95;88.07;101871.81;5023436;28;45568;-87
2021/10/07 02:54:57;;;;;;;;;3.50;2.00;;;;;12.93;88.14;101878.09;5020087;28;47538;-87
2021/10/07 02:57:22;;;;;;;;;4.75;2.00;;;;;13.12;87.91;101901.56;5037808;28;45755;-87
2021/10/07 02:59:48;;;;;;;;;4.00;3.00;;;;;13.10;87.92;101898.97;5019949;28;45686;-87
2021/10/07 03:02:15;;;;;;;;;2.50;2.00;;;;;12.91;88.17;101880.81;5038431;28;45544;-86
2021/10/07 03:04:41;;;;;;;;;3.00;2.25;;;;;12.78;88.13;101864.09;5020178;28;47543;-85
2021/10/07 03:10:28;;;;;;;;;3.50;3.00;;;;;12.68;87.95;101849.81;5035786;28;45463;-87
2021/10/07 03:12:54;;;;;;;;;2.75;2.75;;;;;12.93;87.76;101909.66;5018760;28;45809;-85
2021/10/07 03:15:20;;;;;;;;;3.75;3.00;;;;;12.80;88.20;101890.28;5019629;28;47181;-85
2021/10/07 03:17:46;;;;;;;;;4.75;4.00;;;;;12.71;87.75;101889.06;5019491;28;47294;-87
2021/10/07 03:20:11;;;;;;;;;1.50;1.50;;;;;12.67;88.18;101890.19;5020373;28;45731;-88
2021/10/07 03:22:37;;;;;;;;;3.50;3.25;;;;;12.81;87.85;101919.13;5037761;28;45704;-87
2021/10/07 03:25:04;;;;;;;;;3.00;2.00;;;;;12.76;88.08;101909.81;5021080;28;48548;-86
2021/10/07 03:27:30;;;;;;;;;4.50;3.00;;;;;12.43;88.21;101860.06;5021994;28;47029;-86
2021/10/07 03:29:55;;;;;;;;;4.50;1.75;;;;;12.69;87.99;101905.84;5019006;28;45774;-87
2021/10/07 03:32:21;;;;;;;;;3.00;3.00;;;;;12.70;88.05;101899.66;5019358;28;45809;-86
2021/10/07 03:34:46;;;;;;;;;5.00;3.00;;;;;12.78;88.08;101921.97;5019418;28;46254;-86
2021/10/07 03:40:34;;;;;;;;;4.00;2.75;;;;;12.71;88.13;101912.72;5040681;28;45744;-86
2021/10/07 03:42:59;;;;;;;;;3.25;3.00;;;;;12.58;88.14;101890.72;5023240;28;45913;-87
2021/10/07 03:45:25;;;;;;;;;5.00;3.50;;;;;12.37;88.10;101855.16;5023781;28;47213;-87
2021/10/07 03:47:50;;;;;;;;;4.25;3.00;;;;;12.55;88.04;101893.53;5023449;28;46600;-86
2021/10/07 03:50:16;;;;;;;;;3.00;3.00;;;;;12.57;88.42;101894.31;5041165;28;45675;-86
2021/10/07 03:52:42;;;;;;;;;3.00;3.00;;;;;12.66;87.84;101922.69;5041653;28;45670;-85
2021/10/07 03:55:08;;;;;;;;;3.00;3.00;;;;;12.70;87.98;101932.06;5023869;28;47370;-86
2021/10/07 03:57:33;;;;;;;;;5.25;3.00;;;;;12.38;88.03;101883.16;5026475;28;47532;-86
2021/10/07 03:59:59;;;;;;;;;4.00;4.00;;;;;12.63;88.05;101922.88;5027262;28;45541;-85
2021/10/07 04:02:24;;;;;;;;;3.50;3.00;;;;;12.59;88.23;101916.06;5027384;28;45584;-86
2021/10/07 04:04:50;;;;;;;;;5.00;4.00;;;;;12.45;87.92;101903.75;5026877;28;47379;-86
2021/10/07 04:10:37;;;;;;;;;4.25;3.25;;;;;12.52;88.26;101925.28;5043027;28;45870;-87
2021/10/07 04:13:03;;;;;;;;;3.00;3.00;;;;;12.12;88.02;101861.03;5042002;28;45756;-86
2021/10/07 04:15:28;;;;;;;;;4.00;3.00;;;;;12.49;88.33;101921.03;5019991;28;47583;-86
2021/10/07 04:17:53;;;;;;;;;2.50;2.00;;;;;12.31;88.34;101898.41;5018313;28;47072;-86
2021/10/07 04:20:19;;;;;;;;;3.00;3.00;;;;;12.33;87.86;101903.59;5017881;28;45719;-87
2021/10/07 04:22:44;;;;;;;;;3.00;3.00;;;;;12.36;88.11;101909.50;5036378;28;45609;-85
2021/10/07 04:25:10;;;;;;;;;3.00;3.00;;;;;12.17;88.27;101877.38;5017263;28;47459;-87
2021/10/07 04:27:35;;;;;;;;;4.00;3.75;;;;;12.57;88.31;101945.09;5018124;28;45954;-87
2021/10/07 04:30:11;;;;;;;;;3.25;3.25;;;;;12.49;88.39;101928.06;5019171;28;45607;-87
2021/10/07 04:37:54;;;;;;;;;;;;;;;;;;;;;
2021/10/07 05:08:27;;;;;;;;;4.00;2.00;;;;;12.41;88.22;101925.03;5098811;27;46253;-86
2021/10/07 05:10:54;;;;;;;;;3.75;3.75;;;;;12.18;88.37;101893.03;5068732;27;46629;-85
2021/10/07 05:13:19;;;;;;;;;5.00;3.00;;;;;12.28;88.28;101922.25;5073436;27;46175;-86
2021/10/07 05:15:45;;;;;;;;;3.50;3.00;;;;;12.23;88.29;101911.16;5084757;27;47525;-86
2021/10/07 05:18:10;;;;;;;;;4.25;3.00;;;;;12.54;88.47;101957.56;5088196;27;48271;-87
2021/10/07 05:20:35;;;;;;;;;4.00;4.00;;;;;12.11;88.42;101894.31;5085404;27;45757;-86
2021/10/07 05:23:01;;;;;;;;;3.50;2.75;;;;;12.17;88.21;101915.00;5068639;27;45784;-86
2021/10/07 05:25:26;;;;;;;;;3.00;2.50;;;;;12.37;88.40;101934.88;5069550;27;48426;-87
2021/10/07 05:27:52;;;;;;;;;3.00;3.00;;;;;12.27;88.22;101927.59;5066172;27;48056;-87
2021/10/07 05:30:17;;;;;;;;;3.25;3.00;;;;;12.12;88.05;101903.91;5063755;28;45635;-87
2021/10/07 05:32:43;;;;;;;;;6.00;5.00;;;;;12.38;88.48;101940.97;5073542;27;45985;-87
2021/10/07 05:35:09;;;;;;;;;68.50;51.75;;;;;12.55;88.11;101972.41;5068477;27;48533;-87
2021/10/07 05:37:34;;;;;;;;;3.50;3.00;;;;;12.53;88.45;101969.84;5066804;28;47014;-88
2021/10/07 05:40:00;;;;;;;;;6.75;5.00;;;;;12.39;88.51;101955.81;5069436;27;45958;-87
2021/10/07 05:42:25;;;;;;;;;4.75;4.00;;;;;12.53;88.23;101969.84;5074975;27;45955;-87
2021/10/07 05:44:51;;;;;;;;;5.25;4.00;;;;;12.44;88.10;101973.03;5068910;27;45945;-87
2021/10/07 05:47:16;;;;;;;;;4.00;3.00;;;;;12.12;88.17;101916.19;5077925;27;47161;-86
2021/10/07 05:49:41;;;;;;;;;3.00;3.00;;;;;11.99;88.38;101897.63;5072879;28;45978;-86
2021/10/07 05:52:07;;;;;;;;;8.00;5.75;;;;;12.34;88.37;101952.59;5073742;27;46022;-86
2021/10/07 05:54:33;;;;;;;;;4.75;3.50;;;;;12.47;88.58;101979.91;5072828;27;48351;-86
2021/10/07 05:56:58;;;;;;;;;4.00;4.00;;;;;12.25;88.63;101946.09;5075774;27;46104;-85
2021/10/07 05:59:26;;;;;;;;;4.00;4.00;;;;;12.15;88.17;101919.47;5068799;27;46080;-87
2021/10/07 06:01:52;;;;;;;;;4.25;2.50;;;;;12.48;88.44;101990.31;5071809;27;45671;-86
2021/10/07 06:04:17;;;;;;;;;4.00;3.25;;;;;12.30;88.25;101953.72;5071421;27;45772;-88
2021/10/07 06:06:45;;;;;;;;;3.50;3.50;;;;;12.49;88.51;101993.78;5077645;27;45673;-89
2021/10/07 06:09:11;;;;;;;;;5.00;5.00;;;;;12.11;88.28;101925.00;5059600;27;45869;-89
2021/10/07 06:11:37;;;;;;;;;4.00;3.75;;;;;12.19;88.26;101938.56;5061204;28;45849;-91
2021/10/07 06:14:04;;;;;;;;;7.50;4.75;;;;;12.50;88.25;101992.84;5059689;27;45779;-85
2021/10/07 06:16:37;;;;;;;;;4.25;3.25;;;;;12.49;88.33;102005.16;5037349;28;47113;-90
2021/10/07 06:19:04;;;;;;;;;6.25;5.00;;;;;12.46;88.43;102000.06;5052491;28;45735;-78
2021/10/07 06:21:30;;;;;;;;;5.00;4.00;;;;;12.19;87.95;101956.94;5057391;28;45861;-80
2021/10/07 06:23:55;;;;;;;;;6.25;5.00;;;;;12.25;88.08;101964.50;5051813;28;48441;-79
2021/10/07 06:26:21;;;;;;;;;5.25;4.25;;;;;12.45;88.04;101998.38;5057363;28;45725;-80
2021/10/07 06:28:46;;;;;;;;;8.50;5.50;;;;;12.43;88.40;101994.13;5055774;28;45891;-83
2021/10/07 06:31:12;;;;;;;;;5.00;3.25;;;;;12.47;88.00;102003.56;5061085;28;45751;-81
2021/10/07 06:33:38;;;;;;;;;5.50;4.00;;;;;12.46;88.15;101997.44;5056008;28;46643;-82
2021/10/07 06:36:03;;;;;;;;;5.25;5.00;;;;;12.48;88.17;102002.59;5054789;28;46108;-81
2021/10/07 06:38:29;;;;;;;;;5.25;5.00;;;;;12.28;88.02;101963.47;5057093;28;45867;-80
2021/10/07 06:40:54;;;;;;;;;5.00;4.25;;;;;12.48;88.03;101995.56;5061020;27;45630;-79
2021/10/07 06:43:20;;;;;;;;;4.75;4.25;;;;;12.56;87.99;101995.97;5060153;28;45744;-80
2021/10/07 06:45:45;;;;;;;;;4.25;4.25;;;;;12.60;88.09;102007.16;5063666;27;46326;-82
2021/10/07 06:48:10;;;;;;;;;5.50;4.50;;;;;12.63;88.17;101991.22;5061995;27;46602;-81
2021/10/07 06:50:40;;;;;;;;;10.25;6.00;;;;;12.66;88.22;101992.81;5061799;27;45804;-79
2021/10/07 06:53:07;;;;;;;;;8.50;5.75;;;;;12.60;88.07;101984.34;5064803;27;46374;-78
2021/10/07 06:55:33;;;;;;;;;5.00;3.00;;;;;12.74;88.11;102003.75;5062973;28;46379;-81
2021/10/07 06:57:58;;;;;;;;;9.50;5.50;;;;;12.72;87.95;101992.47;5055611;28;45697;-83
2021/10/07 07:00:24;;;;;;;;;6.00;6.00;;;;;12.41;88.08;101952.19;5053994;28;46065;-81
2021/10/07 07:02:49;;;;;;;;;6.00;5.25;;;;;12.82;88.23;102018.16;5056763;28;45715;-80
2021/10/07 07:05:15;;;;;;;;;4.00;4.00;;;;;12.84;88.28;102021.56;5057141;28;46429;-80
2021/10/07 07:07:40;;;;;;;;;7.00;5.25;;;;;12.85;87.80;102011.84;5051980;28;45782;-80
2021/10/07 07:10:06;;;;;;;;;5.75;5.00;;;;;12.90;88.29;102018.53;5051845;28;45629;-79
2021/10/07 07:12:31;;;;;;;;;7.00;6.25;;;;;12.93;88.16;102020.16;5051042;28;46607;-80
2021/10/07 07:14:57;;;;;;;;;8.50;7.25;;;;;12.97;88.40;102034.81;5052023;28;45867;-81
2021/10/07 07:17:22;;;;;;;;;5.75;5.75;;;;;12.98;88.04;102026.00;5052235;28;45874;-79
2021/10/07 07:19:48;;;;;;;;;10.25;7.50;;;;;13.00;88.09;102026.75;5056512;28;45731;-79
2021/10/07 07:22:15;;;;;;;;;8.00;7.00;;;;;12.96;88.15;102017.31;5052817;28;46368;-80
2021/10/07 07:24:41;;;;;;;;;7.00;7.00;;;;;13.03;88.34;102035.31;5052689;28;46137;-80
2021/10/07 07:27:07;;;;;;;;;5.25;5.25;;;;;12.91;88.00;102009.72;5048331;28;46101;-80
2021/10/07 07:29:33;;;;;;;;;9.00;6.00;;;;;13.01;88.10;102017.91;5049820;28;45797;-78
2021/10/07 07:31:58;;;;;;;;;9.50;8.75;;;;;13.01;87.88;102017.91;5052047;28;45942;-80
2021/10/07 07:34:25;;;;;;;;;8.25;7.00;;;;;13.13;88.34;102038.28;5052631;28;46389;-79
2021/10/07 07:36:50;;;;;;;;;13.25;9.75;;;;;13.16;88.04;102032.84;5051923;28;45664;-79
2021/10/07 07:39:15;;;;;;;;;8.00;5.00;;;;;13.14;87.95;102026.81;5055895;28;45716;-80
2021/10/07 07:41:41;;;;;;;;;8.25;6.00;;;;;13.16;88.09;102030.22;5052871;27;46736;-82
2021/10/07 07:44:06;;;;;;;;;9.50;8.00;;;;;13.08;87.90;102011.34;5051715;28;46318;-81
2021/10/07 07:46:33;;;;;;;;;9.75;8.25;;;;;13.13;87.80;102011.97;5051418;28;45735;-79
2021/10/07 07:49:00;;;;;;;;;11.25;7.75;;;;;13.27;87.60;102032.22;5051491;28;45815;-79
2021/10/07 07:51:26;;;;;;;;;11.75;8.25;;;;;13.33;87.76;102045.84;5056192;28;45700;-80
2021/10/07 07:53:52;;;;;;;;;10.75;8.00;;;;;13.36;88.04;102036.91;5054099;28;46488;-80
2021/10/07 07:56:18;;;;;;;;;8.50;5.75;;;;;13.41;88.11;102034.84;5066011;27;45886;-80
2021/10/07 07:58:44;;;;;;;;;7.75;7.75;;;;;13.48;87.61;102043.25;5051310;28;45698;-81
2021/10/07 08:01:09;;;;;;;;;7.25;7.00;;;;;13.48;87.71;102033.56;5047726;28;46501;-81
2021/10/07 08:03:35;;;;;;;;;9.75;7.50;;;;;13.53;87.89;102041.19;5047304;28;46207;-80
2021/10/07 08:06:00;;;;;;;;;9.25;8.00;;;;;13.62;87.97;102052.00;5050647;28;45900;-80
2021/10/07 08:08:25;;;;;;;;;11.75;9.00;;;;;13.65;87.63;102043.94;5051199;28;45842;-80
2021/10/07 08:10:51;;;;;;;;;9.25;7.50;;;;;13.70;87.88;102041.84;5051314;28;45662;-79
2021/10/07 08:13:19;;;;;;;;;13.75;10.00;;;;;13.64;87.76;102023.78;5049426;28;46368;-81
2021/10/07 08:15:44;;;;;;;;;7.75;7.75;;;;;13.80;87.57;102058.78;5058426;27;45699;-82
2021/10/07 08:18:11;;;;;;;;;9.00;8.00;;;;;13.86;87.50;102049.66;5050464;28;45709;-80
2021/10/07 08:20:38;;;;;;;;;8.25;7.00;;;;;13.77;87.55;102029.97;5050935;28;47217;-81
2021/10/07 08:23:04;;;;;;;;;10.75;8.50;;;;;13.67;87.69;102007.78;5051337;28;46072;-80
2021/10/07 08:25:29;;;;;;;;;9.75;7.75;;;;;13.91;87.84;102047.59;5051461;28;46147;-80
2021/10/07 08:27:54;;;;;;;;;12.00;9.00;;;;;13.99;87.56;102053.22;5052050;28;46010;-78
2021/10/07 08:30:20;;;;;;;;;7.00;7.00;;;;;14.04;87.49;102052.91;5054104;28;45957;-81
2021/10/07 08:32:45;;;;;;;;;8.75;7.25;;;;;14.11;87.60;102057.72;5053260;28;46282;-81
2021/10/07 08:35:11;;;;;;;;;11.00;8.00;;;;;13.92;87.13;102017.66;5051189;28;45590;-80
2021/10/07 08:37:38;;;;;;;;;9.00;8.00;;;;;14.23;87.41;102062.22;5050950;28;45792;-81
2021/10/07 08:40:06;;;;;;;;;9.50;8.25;;;;;14.28;87.30;102068.06;5049530;28;47499;-80
2021/10/07 08:42:31;;;;;;;;;10.75;8.50;;;;;14.33;87.29;102065.13;5051120;28;46057;-80
2021/10/07 08:44:57;;;;;;;;;11.00;8.25;;;;;14.38;87.02;102064.84;5050766;28;46115;-80
2021/10/07 08:47:23;;;;;;;;;12.50;9.00;;;;;14.42;87.36;102066.34;5050188;28;45879;-81
2021/10/07 08:49:51;;;;;;;;;11.75;9.00;;;;;14.48;87.25;102066.81;5050461;28;45725;-81
2021/10/07 08:52:17;;;;;;;;;12.00;9.00;;;;;14.53;87.02;102061.22;5045949;28;45792;-79
2021/10/07 08:54:42;;;;;;;;;10.25;8.50;;;;;14.45;87.24;102038.00;5050217;28;45721;-81
2021/10/07 08:57:08;;;;;;;;;12.25;9.00;;;;;14.62;87.13;102058.88;5054778;28;45891;-79
2021/10/07 08:59:35;;;;;;;;;12.00;9.00;;;;;14.48;86.85;102027.25;5051173;28;45773;-80
2021/10/07 09:02:04;;;;;;;;;9.75;9.00;;;;;14.67;86.85;102054.16;5047437;28;45820;-79
2021/10/07 09:04:35;;;;;;;;;9.50;8.00;;;;;14.69;86.89;102048.75;5057648;28;45900;-80
2021/10/07 09:07:10;;;;;;;;;9.25;9.25;;;;;14.77;86.95;102051.75;5050331;28;46258;-81
2021/10/07 09:09:38;;;;;;;;;10.25;8.75;;;;;14.85;87.11;102059.13;5045099;28;45739;-79
2021/10/07 09:12:09;;;;;;;;;12.25;9.25;;;;;14.90;86.95;102065.00;5055750;27;46111;-80
2021/10/07 09:14:42;;;;;;;;;13.00;10.00;;;;;14.95;86.85;102061.06;5049804;28;45810;-79
2021/10/07 09:17:10;;;;;;;;;1.75;1.00;;;;;15.00;86.98;102061.63;5050390;28;45852;-80
2021/10/07 09:19:40;;;;;;;;;14.00;11.00;;;;;15.01;86.91;102049.25;5049996;28;45724;-80
2021/10/07 09:22:18;;;;;;;;;10.50;9.00;;;;;15.10;87.06;102067.16;5055310;28;46108;-80
2021/10/07 09:24:46;;;;;;;;;11.75;9.50;;;;;15.07;86.71;102054.97;5052095;28;45830;-80
2021/10/07 09:27:14;;;;;;;;;13.00;11.00;;;;;15.15;86.84;102062.41;5042590;28;45668;-79
2021/10/07 09:29:49;;;;;;;;;13.00;11.00;;;;;15.26;86.80;102067.81;5049924;28;45653;-80
2021/10/07 09:32:28;;;;;;;;;12.50;10.75;;;;;15.30;86.44;102053.44;5049818;28;48187;-79
2021/10/07 09:34:55;;;;;;;;;12.50;11.50;;;;;15.36;86.83;102058.31;5054878;28;46167;-79
2021/10/07 09:37:35;;;;;;;;;11.50;10.75;;;;;15.38;86.52;102045.00;5056874;28;45716;-79
2021/10/07 09:40:03;;;;;;;;;13.75;12.50;;;;;15.46;86.23;102046.16;5048493;28;46598;-78
2021/10/07 09:42:36;;;;;;;;;16.25;12.25;;;;;15.49;86.50;102042.50;5052066;28;45846;-79
2021/10/07 09:45:22;;;;;;;;;11.75;10.75;;;;;15.59;86.29;102045.38;5052874;28;45716;-79
2021/10/07 09:47:55;;;;;;;;;14.25;11.00;;;;;15.59;86.31;102040.94;5054145;28;45936;-80
2021/10/07 09:50:26;;;;;;;;;11.50;10.00;;;;;15.72;86.71;102049.69;5059976;28;45726;-79
2021/10/07 09:52:57;;;;;;;;;7.50;7.00;;;;;15.72;85.94;102043.56;5060921;28;46198;-78
2021/10/07 09:55:25;;;;;;;;;5.25;4.50;;;;;15.83;86.04;102043.66;5060745;28;45927;-79
2021/10/07 09:57:50;;;;;;;;;6.00;6.00;;;;;15.86;86.24;102049.59;5062668;28;45638;-79
2021/10/07 10:00:16;;;;;;;;;6.00;5.75;;;;;15.79;86.27;102031.59;5061156;28;45712;-79
2021/10/07 10:02:42;;;;;;;;;7.25;5.25;;;;;15.95;85.81;102051.56;5061549;28;45690;-78
2021/10/07 10:05:13;;;;;;;;;5.50;5.25;;;;;15.73;85.87;101995.03;5070670;28;45060;-79
2021/10/07 10:07:40;;;;;;;;;6.00;4.75;;;;;15.91;85.89;102021.03;5067678;28;45756;-80
2021/10/07 10:10:06;;;;;;;;;5.50;5.00;;;;;16.09;86.03;102047.09;5069519;28;45734;-78
2021/10/07 10:12:32;;;;;;;;;4.75;4.75;;;;;16.15;85.65;102042.22;5069824;28;46058;-79
2021/10/07 10:14:59;;;;;;;;;0.50;0.50;;;;;16.18;85.87;102038.53;5070723;28;45586;-79
2021/10/07 10:17:26;;;;;;;;;3.50;2.75;;;;;16.20;85.63;102036.59;5056431;28;45831;-80
2021/10/07 10:19:54;;;;;;;;;5.75;3.00;;;;;16.25;85.40;102031.81;5057437;28;45726;-80
2021/10/07 10:22:22;;;;;;;;;4.50;4.00;;;;;16.18;85.33;102023.50;5059282;27;46213;-80
2021/10/07 10:24:48;;;;;;;;;5.00;3.50;;;;;16.14;85.37;102008.78;5052904;28;46011;-81
2021/10/07 10:27:14;;;;;;;;;6.00;5.25;;;;;16.37;85.03;102038.88;5045430;28;45817;-81
2021/10/07 10:29:39;;;;;;;;;5.50;5.00;;;;;16.40;84.86;102038.66;5052743;28;46401;-80
2021/10/07 10:32:05;;;;;;;;;8.75;6.25;;;;;16.43;84.72;102042.88;5052703;28;46595;-79
2021/10/07 10:34:38;;;;;;;;;6.50;6.00;;;;;16.40;85.34;102029.88;5056984;28;45723;-80
2021/10/07 10:37:04;;;;;;;;;4.00;4.00;;;;;16.45;84.99;102036.53;5045902;28;45849;-81
2021/10/07 10:39:37;;;;;;;;;5.75;4.75;;;;;16.50;84.97;102030.91;5052038;28;47444;-80
2021/10/07 10:42:17;;;;;;;;;5.25;4.00;;;;;16.61;84.55;102042.41;5053060;28;45735;-79
2021/10/07 10:44:46;;;;;;;;;5.75;4.00;;;;;16.59;84.93;102036.38;5052845;28;46092;-80
2021/10/07 10:47:11;;;;;;;;;5.00;5.00;;;;;16.70;84.36;102036.44;5058557;28;45745;-79
2021/10/07 10:49:37;;;;;;;;;8.00;6.00;;;;;16.74;84.66;102034.41;5053168;28;45687;-80
2021/10/07 10:52:25;;;;;;;;;6.75;6.00;;;;;16.78;84.54;102034.09;5054580;28;46149;-80
2021/10/07 10:55:03;;;;;;;;;5.50;4.00;;;;;16.81;84.83;102032.16;5053470;28;45752;-79
2021/10/07 10:57:46;;;;;;;;;5.00;5.00;;;;;16.76;84.38;102021.91;5052623;28;45683;-81
2021/10/07 11:00:30;;;;;;;;;5.50;4.25;;;;;16.88;84.11;102036.03;5051891;28;47425;-80
2021/10/07 11:03:08;;;;;;;;;3.75;3.75;;;;;16.91;84.05;102041.09;5052299;28;45857;-80
2021/10/07 11:05:38;;;;;;;;;5.00;4.00;;;;;16.94;83.42;102032.94;5052357;28;45779;-80
2021/10/07 11:08:09;;;;;;;;;2.25;2.25;;;;;16.98;83.38;102035.22;5049304;28;45823;-79
2021/10/07 11:10:50;;;;;;;;;4.25;4.25;;;;;17.03;83.43;102037.53;5052405;28;45789;-79
2021/10/07 11:13:18;;;;;;;;;5.00;4.00;;;;;17.08;83.19;102027.44;5049376;28;46349;-80
2021/10/07 11:16:13;;;;;;;;;4.50;4.25;;;;;17.15;83.64;102036.59;5052134;28;45698;-80
2021/10/07 11:18:39;;;;;;;;;4.00;4.00;;;;;17.20;83.13;102034.44;5050037;28;45725;-80
2021/10/07 11:21:17;;;;;;;;;4.25;4.25;;;;;17.26;83.44;102036.63;5050156;28;46803;-80
2021/10/07 11:23:50;;;;;;;;;6.50;4.00;;;;;17.31;83.35;102034.47;5053853;28;46216;-79
2021/10/07 11:26:16;;;;;;;;;3.25;3.00;;;;;17.32;82.59;102030.88;5050888;28;45788;-80
2021/10/07 11:28:44;;;;;;;;;5.00;4.00;;;;;17.29;83.22;102020.50;5049668;28;45732;-79
2021/10/07 11:31:22;;;;;;;;;4.25;4.00;;;;;17.40;82.72;102039.06;5050010;28;46575;-80
2021/10/07 11:33:51;;;;;;;;;5.25;4.75;;;;;17.43;83.11;102038.00;5042281;28;46100;-80
2021/10/07 11:36:21;;;;;;;;;4.25;4.00;;;;;17.45;82.44;102034.25;5048107;28;45743;-80
2021/10/07 11:38:48;;;;;;;;;5.75;4.50;;;;;17.49;82.86;102026.94;5048914;28;46068;-79
2021/10/07 11:41:16;;;;;;;;;7.00;5.00;;;;;17.54;82.67;102020.28;5049449;28;46290;-80
2021/10/07 11:43:44;;;;;;;;;6.00;6.00;;;;;17.58;82.17;102024.41;5032199;28;46564;-80
2021/10/07 11:46:12;;;;;;;;;5.00;5.00;;;;;17.37;82.65;101980.19;5048960;28;45876;-80
2021/10/07 11:48:58;;;;;;;;;8.00;5.00;;;;;17.66;82.49;102017.66;5049228;28;45886;-78
2021/10/07 11:51:29;;;;;;;;;5.50;4.50;;;;;17.68;81.98;102021.91;5049071;28;46282;-78
2021/10/07 11:54:02;;;;;;;;;5.75;5.00;;;;;17.71;82.14;102021.66;5049139;28;46100;-78
2021/10/07 11:56:29;;;;;;;;;5.25;4.25;;;;;17.74;82.19;102018.78;5043570;28;45896;-78
2021/10/07 11:59:00;;;;;;;;;5.25;4.00;;;;;17.78;81.89;102014.91;5050152;28;45935;-78
2021/10/07 12:01:30;;;;;;;;;6.00;5.00;;;;;17.78;81.41;102016.72;5055033;28;45734;-78
2021/10/07 12:03:59;;;;;;;;;5.00;4.50;;;;;17.80;81.42;102020.09;5051425;28;46628;-79
2021/10/07 12:06:26;;;;;;;;;6.00;4.25;;;;;17.80;81.08;102013.00;5052395;28;45732;-80
2021/10/07 12:08:51;;;;;;;;;5.25;4.50;;;;;17.75;81.43;102009.00;5051055;28;45829;-80
2021/10/07 12:11:25;;;;;;;;;5.00;4.50;;;;;17.83;80.87;102010.09;5051230;28;45717;-79
2021/10/07 12:13:56;;;;;;;;;6.25;6.25;;;;;17.83;80.68;102003.94;5051430;28;45926;-80
2021/10/07 12:16:22;;;;;;;;;7.00;6.50;;;;;17.87;80.55;102003.56;5048367;28;45672;-80
2021/10/07 12:18:52;;;;;;;;;6.50;6.00;;;;;17.90;81.02;102006.00;5051420;28;46029;-80
2021/10/07 12:21:25;;;;;;;;;6.00;6.00;;;;;17.84;80.82;101979.97;5058120;28;46815;-81
2021/10/07 12:23:53;;;;;;;;;9.25;6.50;;;;;17.97;81.09;102001.88;5051606;28;46031;-79
2021/10/07 12:26:23;;;;;;;;;4.25;4.25;;;;;17.88;80.91;101970.78;5051278;28;45739;-80
2021/10/07 12:28:53;;;;;;;;;6.75;5.75;;;;;18.03;80.48;101985.47;5053091;28;45893;-80